• Join FlightAware (Why Join?)
  • Login
  • US Flag 
07:48AM EDT


 

Airport Tracker/Info


-or-


 

Live Flight TrackerFlight Track Log ✈ N317FL ✈ 02-May-2013 ✈ KPNE - KCKB

Flight Track Log - Related Links

Times and Time Zones

All times are in EDT time to prevent confusion due to time zone crossing. See the N317FL flight status page for this flight to view local times or setup timezone preferences in your user account.

Time Position Orientation Groundspeed Altitude Reporting Facility
EDT Latitude Longitude Course Direction KTS MPH feet Rate Location/Type
08:09AM 40.0892 -75.0212 321° Northwest 150 173 500  Level FlightAware ADS-B
08:09AM 40.0941 -75.0267 319° Northwest 164 189 900 1,680 Climbing FlightAware ADS-B
08:09AM 40.1035 -75.0379 318° Northwest 175 201 1,200 900 Climbing FlightAware ADS-B
08:09AM 40.1134 -75.0498 317° Northwest 188 216 1,400 1,500 Climbing FlightAware ADS-B
08:09AM 40.1207 -75.0585 318° Northwest 195 224 1,900 3,000 Climbing FlightAware ADS-B
08:09AM 40.1229 -75.0615 314° West 197 227 2,100 3,300 Climbing FlightAware ADS-B
08:10AM 40.1260 -75.0673 305° West 199 229 2,400 3,000 Climbing FlightAware ADS-B
08:10AM 40.1273 -75.0715 292° West 201 231 2,600 3,000 Climbing FlightAware ADS-B
08:10AM 40.1281 -75.0763 282° West 203 234 2,800 2,520 Climbing FlightAware ADS-B
08:10AM 40.1282 -75.0806 272° West 204 235 2,900 2,220 Climbing FlightAware ADS-B
08:10AM 40.1275 -75.0860 260° West 206 237 3,100 1,980 Climbing FlightAware ADS-B
08:10AM 40.1261 -75.0907 249° West 208 239 3,200 2,220 Climbing FlightAware ADS-B
08:10AM 40.1240 -75.0950 237° Southwest 209 241 3,400 3,300 Climbing FlightAware ADS-B
08:10AM 40.1152 -75.1114 235° Southwest 207 238 4,300 3,360 Climbing FlightAware ADS-B
08:10AM 40.1099 -75.1207 233° Southwest 203 234 4,800 3,120 Climbing FlightAware ADS-B
08:11AM 40.1029 -75.1324 232° Southwest 208 239 5,400 2,220 Climbing FlightAware ADS-B
08:11AM 40.0948 -75.1450 230° Southwest 224 258 5,700 1,920 Climbing FlightAware ADS-B
08:11AM 40.0841 -75.1613 229° Southwest 236 272 6,300 2,340 Climbing FlightAware ADS-B
08:11AM 40.0751 -75.1750 229° Southwest 240 276 6,800 2,580 Climbing FlightAware ADS-B
08:11AM 40.0723 -75.1801 234° Southwest 242 278 7,000 3,000 Climbing FlightAware ADS-B
08:11AM 40.0702 -75.1848 240° Southwest 242 278 7,200 3,000 Climbing FlightAware ADS-B
08:11AM 40.0681 -75.1904 244° Southwest 241 277 7,400 3,180 Climbing FlightAware ADS-B
08:12AM 40.0638 -75.2040 248° West 239 275 8,000 3,000 Climbing FlightAware ADS-B
08:12AM 40.0569 -75.2243 246° West 244 281 8,700 2,520 Climbing FlightAware ADS-B
08:12AM 40.0519 -75.2400 247° West 250 288 9,100 1,560 Climbing FlightAware ADS-B
08:12AM 40.0451 -75.2621 248° West 268 308 9,400 720 Climbing FlightAware ADS-B
08:13AM 40.0377 -75.2866 248° West 292 336 9,500 180 Climbing FlightAware ADS-B
08:13AM 40.0291 -75.3141 248° West 318 366 9,500  Level FlightAware ADS-B
08:13AM 40.0203 -75.3426 248° West 335 386 9,500 180 Level FlightAware ADS-B
08:13AM 40.0110 -75.3737 249° West 336 387 9,600 1,020 Climbing FlightAware ADS-B
08:14AM 39.9937 -75.4293 248° West 325 374 10,300 1,140 Climbing FlightAware ADS-B
08:14AM 39.9762 -75.4846 248° West 319 367 10,800 1,080 Climbing FlightAware ADS-B
08:15AM 39.9594 -75.5387 248° West 314 361 11,400 660 Climbing FlightAware ADS-B
08:15AM 39.9421 -75.5942 248° West 340 391 11,500 1,500 Climbing FlightAware ADS-B
08:16AM 39.9252 -75.6479 248° West 343 395 12,900 3,360 Climbing FlightAware ADS-B
08:16AM 39.9191 -75.6725 252° West 336 387 13,800 3,960 Climbing FlightAware ADS-B
08:16AM 39.9173 -75.6888 262° West 332 382 14,300 3,900 Climbing FlightAware ADS-B
08:17AM 39.9170 -75.7519 270° West 317 365 16,400 3,540 Climbing FlightAware ADS-B
08:17AM 39.9157 -75.8094 268° West 320 368 18,000 2,700 Climbing FlightAware ADS-B
08:18AM 39.9143 -75.8688 268° West 334 384 19,100 2,340 Climbing FlightAware ADS-B
08:18AM 39.9128 -75.9365 268° West 343 395 20,500 2,400 Climbing FlightAware ADS-B
08:19AM 39.9113 -76.0005 268° West 348 400 21,700 2,460 Climbing FlightAware ADS-B
08:19AM 39.9102 -76.0546 268° West 348 400 22,800 2,520 Climbing FlightAware ADS-B
08:20AM 39.9087 -76.1186 268° West 348 400 24,100 2,100 Climbing FlightAware ADS-B
08:20AM 39.9072 -76.1859 268° West 360 414 25,000 1,620 Climbing FlightAware ADS-B
08:21AM 39.9082 -76.2449 271° West 375 432 25,700 1,020 Climbing FlightAware ADS-B
08:21AM 39.9122 -76.3162 274° West 396 456 26,000 240 Climbing FlightAware ADS-B
08:22AM 39.9173 -76.4207 274° West 431 496 26,000  Level FlightAware ADS-B
08:22AM 39.9208 -76.5035 273° West 439 505 26,000  Level FlightAware ADS-B
08:23AM 39.9242 -76.5876 273° West 445 512 26,000  Level FlightAware ADS-B
08:24AM 39.9277 -76.6736 273° West 448 516 26,000  Level FlightAware ADS-B
08:24AM 39.9310 -76.7500 273° West 451 519 26,000  Level FlightAware
08:24AM 39.9323 -76.7919 272° West 452 520 26,000  Level FlightAware ADS-B
08:25AM 39.9394 -76.9805 273° West 455 524 26,000  Level FlightAware ADS-B
08:26AM 39.9420 -77.0590 272° West 454 522 26,000 -120 Level FlightAware
08:26AM 39.9382 -77.1161 265° West 456 525 25,900 -840 Descending FlightAware ADS-B
08:27AM 39.9193 -77.2034 254° West 455 524 25,300 -960 Descending FlightAware ADS-B
08:28AM 39.8980 -77.3090 255° West 451 519 24,700 -960 Descending FlightAware
08:28AM 39.9010 -77.4200 272° West 446 513 24,000 -1,020 Descending FlightAware
08:29AM 39.9160 -77.5320 280° West 438 504 23,300 -1,020 Descending FlightAware
08:30AM 39.9270 -77.6170 280° West 436 502 22,700 -720 Descending FlightAware
08:30AM 39.9400 -77.7260 279° West 435 501 22,400 -240 Descending FlightAware
08:31AM 39.9540 -77.8360 279° West 435 501 22,400 -300 Level FlightAware
08:32AM 39.9690 -77.9410 281° West 427 491 22,000 -300 Descending FlightAware
08:32AM 39.9480 -78.0650 258° West 420 483 22,000  Level FlightAware
08:33AM 39.9270 -78.1640 255° West 420 483 22,000  Level FlightAware
08:34AM 39.9070 -78.2620 255° West 418 481 22,000  Level FlightAware
08:35AM 39.8840 -78.3720 255° West 418 481 22,000  Level FlightAware
08:35AM 39.8630 -78.4690 254° West 417 480 22,000  Level FlightAware
08:36AM 39.8430 -78.5650 255° West 415 478 22,000  Level FlightAware
08:36AM 39.8240 -78.6500 254° West 412 474 22,000  Level FlightAware
08:37AM 39.8000 -78.7650 255° West 410 472 22,000  Level FlightAware
08:38AM 39.7770 -78.8700 254° West 409 471 22,000  Level FlightAware
08:39AM 39.7560 -78.9640 254° West 409 471 22,000 -960 Level FlightAware
08:39AM 39.7320 -79.0750 254° West 415 478 20,700 -1,860 Descending FlightAware
08:40AM 39.7130 -79.1630 254° West 413 475 19,400 -1,200 Descending FlightAware
08:41AM 39.6920 -79.2590 254° West 413 475 19,100 -240 Descending FlightAware
08:41AM 39.6740 -79.3400 254° West 413 475 19,100  Level FlightAware
08:42AM 39.6560 -79.4210 254° West 413 475 19,100  Level FlightAware
08:43AM 39.6330 -79.5220 254° West 413 475 19,100  Level FlightAware
08:44AM 39.6160 -79.6030 255° West 413 475 19,100 -6,180 Level FlightAware
08:44AM 39.5950 -79.7183 255° West 380 437 10,900 -5,940 Descending Cleveland Center
08:45AM 39.5686 -79.8292 253° West 355 409 9,200 -1,680 Descending Cleveland Center
08:46AM 39.5253 -79.9131 236° Southwest 299 344 7,600 -1,560 Descending Cleveland Center
08:47AM 39.4758 -79.9861 229° Southwest 294 338 6,100 -1,320 Descending Cleveland Center
08:48AM 39.4406 -80.0589 238° Southwest 265 305 5,000 -1,080 Descending Cleveland Center
08:49AM 39.4117 -80.1208 239° Southwest 230 265 4,000 -1,080 Descending Cleveland Center
08:50AM 39.3847 -80.1722 236° Southwest 201 231 2,900 -1,140 Descending Cleveland Center
08:52AM 39.2976 -80.2275 218° Southwest  Level Estimated
08:59AM 39.2976 -80.2275 218° Southwest  Level Estimated
09:00AM 39.2976 -80.2275 218° Southwest  Level Estimated
09:01AM 39.2976 -80.2275 218° Southwest  Level Estimated